sensor_id;sensor_type;location;lat;lon;timestamp;temperature;humidity
29255;DHT22;16277;48.890;2.306;2023-02-28T00:08:45;10.00;72.10
29255;DHT22;16277;48.890;2.306;2023-02-28T00:23:49;9.70;72.40
29255;DHT22;16277;48.890;2.306;2023-02-28T00:38:54;9.80;72.30
29255;DHT22;16277;48.890;2.306;2023-02-28T00:53:58;9.90;72.70
29255;DHT22;16277;48.890;2.306;2023-02-28T01:09:03;9.80;72.80
29255;DHT22;16277;48.890;2.306;2023-02-28T01:24:08;9.60;73.10
29255;DHT22;16277;48.890;2.306;2023-02-28T01:39:12;9.60;72.90
29255;DHT22;16277;48.890;2.306;2023-02-28T01:54:21;9.70;72.70
29255;DHT22;16277;48.890;2.306;2023-02-28T02:09:26;9.30;73.20
29255;DHT22;16277;48.890;2.306;2023-02-28T02:24:57;9.40;73.40
29255;DHT22;16277;48.890;2.306;2023-02-28T02:40:10;9.40;72.00
29255;DHT22;16277;48.890;2.306;2023-02-28T02:55:17;9.30;71.70
29255;DHT22;16277;48.890;2.306;2023-02-28T03:10:32;9.40;71.40
29255;DHT22;16277;48.890;2.306;2023-02-28T03:25:42;9.10;71.50
29255;DHT22;16277;48.890;2.306;2023-02-28T03:40:52;9.10;70.30
29255;DHT22;16277;48.890;2.306;2023-02-28T03:56:01;9.00;70.10
29255;DHT22;16277;48.890;2.306;2023-02-28T04:11:16;9.20;69.60
29255;DHT22;16277;48.890;2.306;2023-02-28T04:26:22;9.00;69.50
29255;DHT22;16277;48.890;2.306;2023-02-28T04:41:26;8.90;70.50
29255;DHT22;16277;48.890;2.306;2023-02-28T04:56:34;8.80;71.10
29255;DHT22;16277;48.890;2.306;2023-02-28T05:11:39;8.70;71.10
29255;DHT22;16277;48.890;2.306;2023-02-28T05:26:44;8.50;72.40
29255;DHT22;16277;48.890;2.306;2023-02-28T05:41:48;8.00;73.20
29255;DHT22;16277;48.890;2.306;2023-02-28T05:56:52;8.40;74.00
29255;DHT22;16277;48.890;2.306;2023-02-28T06:11:58;8.40;75.90
29255;DHT22;16277;48.890;2.306;2023-02-28T06:27:03;8.20;77.60
29255;DHT22;16277;48.890;2.306;2023-02-28T06:42:08;8.30;77.80
29255;DHT22;16277;48.890;2.306;2023-02-28T06:57:13;8.40;78.00
29255;DHT22;16277;48.890;2.306;2023-02-28T07:12:17;8.30;78.40
29255;DHT22;16277;48.890;2.306;2023-02-28T07:27:22;8.30;78.40
29255;DHT22;16277;48.890;2.306;2023-02-28T07:42:28;8.20;78.90
29255;DHT22;16277;48.890;2.306;2023-02-28T07:57:33;8.20;79.40
29255;DHT22;16277;48.890;2.306;2023-02-28T08:12:38;8.40;79.10
29255;DHT22;16277;48.890;2.306;2023-02-28T08:27:42;8.00;81.70
29255;DHT22;16277;48.890;2.306;2023-02-28T08:42:47;8.70;79.40
29255;DHT22;16277;48.890;2.306;2023-02-28T08:57:51;8.90;78.30
29255;DHT22;16277;48.890;2.306;2023-02-28T09:12:57;9.00;77.80
29255;DHT22;16277;48.890;2.306;2023-02-28T09:28:02;9.00;77.10
29255;DHT22;16277;48.890;2.306;2023-02-28T09:43:12;9.10;77.40
29255;DHT22;16277;48.890;2.306;2023-02-28T09:58:23;9.60;76.40
29255;DHT22;16277;48.890;2.306;2023-02-28T10:13:36;8.90;77.90
29255;DHT22;16277;48.890;2.306;2023-02-28T10:28:42;9.90;73.10
29255;DHT22;16277;48.890;2.306;2023-02-28T10:43:47;10.60;70.30
29255;DHT22;16277;48.890;2.306;2023-02-28T10:58:54;10.30;68.40
29255;DHT22;16277;48.890;2.306;2023-02-28T11:14:06;11.30;63.40
29255;DHT22;16277;48.890;2.306;2023-02-28T11:29:21;11.50;60.40
29255;DHT22;16277;48.890;2.306;2023-02-28T11:44:38;11.00;59.70
29255;DHT22;16277;48.890;2.306;2023-02-28T11:59:56;11.40;57.60
29255;DHT22;16277;48.890;2.306;2023-02-28T12:15:32;12.00;57.20
29255;DHT22;16277;48.890;2.306;2023-02-28T12:30:42;12.30;57.20
29255;DHT22;16277;48.890;2.306;2023-02-28T12:45:55;11.90;57.30
29255;DHT22;16277;48.890;2.306;2023-02-28T13:01:23;12.00;56.90
29255;DHT22;16277;48.890;2.306;2023-02-28T13:16:56;12.30;57.70
29255;DHT22;16277;48.890;2.306;2023-02-28T13:47:28;12.10;56.20
29255;DHT22;16277;48.890;2.306;2023-02-28T14:18:21;11.20;55.80
29255;DHT22;16277;48.890;2.306;2023-02-28T14:33:40;12.30;54.00
29255;DHT22;16277;48.890;2.306;2023-02-28T14:48:47;12.00;53.90
29255;DHT22;16277;48.890;2.306;2023-02-28T15:04:00;14.90;49.40
29255;DHT22;16277;48.890;2.306;2023-02-28T15:19:11;14.30;48.10
29255;DHT22;16277;48.890;2.306;2023-02-28T15:34:21;15.10;46.50
29255;DHT22;16277;48.890;2.306;2023-02-28T15:49:38;13.90;48.10
29255;DHT22;16277;48.890;2.306;2023-02-28T16:05:19;12.90;50.80
29255;DHT22;16277;48.890;2.306;2023-02-28T16:20:31;12.30;51.40
29255;DHT22;16277;48.890;2.306;2023-02-28T16:35:35;12.30;49.50
29255;DHT22;16277;48.890;2.306;2023-02-28T16:50:40;11.50;53.10
29255;DHT22;16277;48.890;2.306;2023-02-28T17:05:45;11.60;51.50
29255;DHT22;16277;48.890;2.306;2023-02-28T17:20:50;11.80;51.80
29255;DHT22;16277;48.890;2.306;2023-02-28T17:35:55;11.40;53.10
29255;DHT22;16277;48.890;2.306;2023-02-28T17:51:00;11.30;53.80
29255;DHT22;16277;48.890;2.306;2023-02-28T18:06:04;11.60;53.50
29255;DHT22;16277;48.890;2.306;2023-02-28T18:21:11;11.40;53.50
29255;DHT22;16277;48.890;2.306;2023-02-28T18:36:17;11.30;54.50
29255;DHT22;16277;48.890;2.306;2023-02-28T18:51:24;11.50;54.50
29255;DHT22;16277;48.890;2.306;2023-02-28T19:06:30;11.20;54.30
29255;DHT22;16277;48.890;2.306;2023-02-28T19:21:35;11.10;54.90
29255;DHT22;16277;48.890;2.306;2023-02-28T19:36:40;11.20;54.90
29255;DHT22;16277;48.890;2.306;2023-02-28T19:51:45;11.40;56.30
29255;DHT22;16277;48.890;2.306;2023-02-28T20:06:50;11.10;55.60
29255;DHT22;16277;48.890;2.306;2023-02-28T20:21:54;11.20;55.30
29255;DHT22;16277;48.890;2.306;2023-02-28T20:36:59;11.10;56.40
29255;DHT22;16277;48.890;2.306;2023-02-28T20:52:03;11.00;56.00
29255;DHT22;16277;48.890;2.306;2023-02-28T21:07:08;10.70;56.80
29255;DHT22;16277;48.890;2.306;2023-02-28T21:22:13;10.80;57.00
29255;DHT22;16277;48.890;2.306;2023-02-28T21:37:18;10.80;57.70
29255;DHT22;16277;48.890;2.306;2023-02-28T21:52:22;10.70;58.50
29255;DHT22;16277;48.890;2.306;2023-02-28T22:07:27;10.60;58.60
29255;DHT22;16277;48.890;2.306;2023-02-28T22:22:31;10.50;59.40
29255;DHT22;16277;48.890;2.306;2023-02-28T22:37:36;10.10;59.80
29255;DHT22;16277;48.890;2.306;2023-02-28T22:52:40;10.10;59.40
29255;DHT22;16277;48.890;2.306;2023-02-28T23:07:45;10.00;59.90
29255;DHT22;16277;48.890;2.306;2023-02-28T23:22:49;9.90;59.60
29255;DHT22;16277;48.890;2.306;2023-02-28T23:37:55;9.90;59.60
29255;DHT22;16277;48.890;2.306;2023-02-28T23:53:00;9.80;59.60
